Terminal Aerodrome Forecast
Issued by NWS

Home | Current Version | Previous Version | Text Only | Print | Product List | Glossary On
Versions: 1 2 3 4 5 6 7 8 9 10 11 12 13 14 15 16
000
FTUS45 KGJT 300537
TAFEGE
TAF
KEGE 300537Z 3006/3106 VRB03KT P6SM SCT250
     FM301900 27008KT P6SM SCT200
     FM302100 29008KT P6SM VCSH SCT250
     FM310200 23006KT P6SM VCSH SCT250
      AMD LTD TO CLD VIS AND WIND TIL 301300=

USA.gov is the U.S. government's official web portal to all federal, state and local government web resources and services.